Time;durP1;ratioP1;P1;durP2;ratioP2;P2;SDS_P1;SDS_P2;PMS_P1;PMS_P2;Temp;Humidity;BMP_temperature;BMP_pressure;BME280_temperature;BME280_humidity;BME280_pressure;Samples;Min_cycle;Max_cycle;Signal;HPM_P1;HPM_P2
2022/10/06 00:01:25;;;;;;;49.58;27.17;;;;;;;15.38;84.87;101846.72;5017405;28;20030;-81
2022/10/06 00:04:10;;;;;;;43.85;27.23;;;;;;;15.43;84.62;101847.69;5008042;28;20042;-79
2022/10/06 00:06:55;;;;;;;39.13;26.40;;;;;;;15.23;85.19;101838.94;5013891;28;20045;-79
2022/10/06 00:09:40;;;;;;;41.45;27.30;;;;;;;15.11;86.22;101838.72;5010789;23;20491;-77
2022/10/06 00:12:24;;;;;;;46.78;28.02;;;;;;;15.16;85.87;101832.28;4994053;28;20678;-77
2022/10/06 00:15:13;;;;;;;45.10;27.90;;;;;;;15.05;86.32;101834.53;4986814;28;20050;-78
2022/10/06 00:17:58;;;;;;;38.70;24.83;;;;;;;15.21;84.76;101838.44;4994463;28;20042;-77
2022/10/06 00:20:43;;;;;;;;;;;;;;;15.19;84.68;101837.94;5000530;28;20046;-77
2022/10/06 00:23:28;;;;;;;40.97;25.77;;;;;;;15.04;85.39;101840.31;4987527;28;19914;-78
2022/10/06 00:26:15;;;;;;;43.17;26.80;;;;;;;15.09;85.59;101830.00;4994675;28;20046;-77
2022/10/06 00:29:00;;;;;;;43.92;27.15;;;;;;;14.95;86.46;101835.63;4995015;28;20042;-77
2022/10/06 00:31:45;;;;;;;42.38;25.17;;;;;;;15.04;86.78;101835.63;4997093;28;20046;-77
2022/10/06 00:34:30;;;;;;;;;;;;;;;14.99;85.42;101836.59;4983816;28;20494;-77
2022/10/06 00:37:14;;;;;;;35.95;23.65;;;;;;;14.96;85.03;101829.03;4975383;28;19914;-77
2022/10/06 00:40:00;;;;;;;;;;;;;;;14.78;86.02;101834.75;4980275;28;20047;-78
2022/10/06 00:42:57;;;;;;;44.13;22.53;;;;;;;14.64;87.00;101832.09;4992555;28;19913;-77
2022/10/06 00:45:47;;;;;;;35.70;23.50;;;;;;;14.55;87.51;101842.22;4994382;28;20038;-77
2022/10/06 00:48:31;;;;;;;37.55;23.85;;;;;;;14.73;86.84;101832.16;4996129;28;20421;-77
2022/10/06 00:51:16;;;;;;;37.55;20.23;;;;;;;14.63;87.10;101826.97;4994063;28;20046;-78
2022/10/06 00:54:01;;;;;;;;;;;;;;;14.66;86.85;101831.81;4998892;28;20050;-78
2022/10/06 00:56:46;;;;;;;41.58;23.75;;;;;;;14.57;87.21;101829.03;4994433;28;20289;-77
2022/10/06 00:59:34;;;;;;;41.55;22.67;;;;;;;14.56;87.00;101832.88;4993162;28;20529;-77
2022/10/06 01:02:31;;;;;;;40.50;23.92;;;;;;;14.61;87.71;101831.94;4995270;28;20043;-77
2022/10/06 01:05:26;;;;;;;38.20;25.27;;;;;;;14.62;87.82;101828.91;4984817;28;20043;-77
2022/10/06 01:08:12;;;;;;;39.03;25.40;;;;;;;14.80;87.10;101827.84;4974407;28;20039;-77
2022/10/06 01:10:56;;;;;;;33.67;24.17;;;;;;;14.81;86.68;101831.38;4974432;28;20274;-77
2022/10/06 01:13:44;;;;;;;38.75;26.05;;;;;;;14.92;86.34;101836.25;4989888;28;20042;-77
2022/10/06 01:16:34;;;;;;;37.08;25.42;;;;;;;14.91;86.46;101839.31;4993382;28;20046;-77
2022/10/06 01:19:35;;;;;;;40.42;25.63;;;;;;;14.86;87.18;101831.25;4992376;28;20425;-77
2022/10/06 01:22:45;;;;;;;42.13;24.55;;;;;;;14.79;87.43;101836.34;4994044;28;20042;-78
2022/10/06 01:25:32;;;;;;;38.38;24.45;;;;;;;14.85;86.74;101832.34;4993486;28;20042;-77
2022/10/06 01:28:17;;;;;;;40.58;24.65;;;;;;;14.90;86.44;101838.50;4994593;28;20045;-77
2022/10/06 01:31:01;;;;;;;37.25;22.05;;;;;;;15.12;84.76;101829.41;4993338;28;20038;-77
2022/10/06 01:33:53;;;;;;;36.63;23.10;;;;;;;14.95;84.77;101832.06;4993417;28;20042;-77
2022/10/06 01:36:40;;;;;;;32.55;22.08;;;;;;;14.81;85.21;101834.94;4993754;28;20042;-77
2022/10/06 01:39:25;;;;;;;35.85;23.73;;;;;;;14.54;86.02;101830.44;4992500;28;20046;-77
2022/10/06 01:42:10;;;;;;;27.33;17.80;;;;;;;14.62;86.08;101830.81;4996984;28;20042;-77
2022/10/06 01:44:55;;;;;;;33.67;24.15;;;;;;;14.58;85.38;101830.63;4994801;28;20054;-77
2022/10/06 01:47:39;;;;;;;36.22;24.70;;;;;;;14.63;85.85;101827.75;4992685;28;20494;-78
2022/10/06 01:50:24;;;;;;;34.42;23.83;;;;;;;14.75;85.97;101818.94;4995662;28;20034;-77
2022/10/06 01:53:10;;;;;;;36.08;23.23;;;;;;;14.83;85.35;101826.41;4993085;28;20046;-77
2022/10/06 01:55:59;;;;;;;39.13;23.77;;;;;;;14.96;85.10;101830.94;4992262;28;20046;-77
2022/10/06 01:58:45;;;;;;;37.75;24.20;;;;;;;15.07;84.55;101829.53;4994604;28;20042;-77
2022/10/06 02:01:30;;;;;;;42.70;23.05;;;;;;;15.07;84.54;101826.81;4992977;28;20050;-77
2022/10/06 02:04:15;;;;;;;49.17;23.40;;;;;;;14.78;84.40;101830.06;4992857;28;20050;-77
2022/10/06 02:07:02;;;;;;;38.00;21.75;;;;;;;14.92;84.14;101821.75;4992946;28;20050;-77
2022/10/06 02:09:47;;;;;;;45.38;23.27;;;;;;;14.81;84.54;101817.69;4992480;28;20042;-77
2022/10/06 02:12:34;;;;;;;53.58;25.30;;;;;;;14.85;85.06;101819.47;4996509;28;20073;-77
2022/10/06 02:15:19;;;;;;;46.25;22.38;;;;;;;14.82;84.48;101817.38;4997292;28;20050;-77
2022/10/06 02:18:04;;;;;;;;;;;;;;;14.72;84.77;101814.94;4999177;28;20050;-77
2022/10/06 02:20:49;;;;;;;38.33;23.10;;;;;;;14.79;84.62;101814.44;4997510;28;19918;-77
2022/10/06 02:23:34;;;;;;;37.05;24.05;;;;;;;14.72;85.16;101809.44;4996754;28;20042;-77
2022/10/06 02:26:20;;;;;;;36.10;24.75;;;;;;;14.75;85.05;101816.22;4998849;28;20039;-77
2022/10/06 02:29:06;;;;;;;32.47;22.23;;;;;;;14.70;85.59;101817.16;4997039;28;20414;-77
2022/10/06 02:31:51;;;;;;;;;;;;;;;14.73;86.16;101811.03;4997040;28;20039;-77
2022/10/06 02:34:36;;;;;;;37.33;23.42;;;;;;;14.76;86.29;101810.44;4996263;28;19973;-77
2022/10/06 02:37:20;;;;;;;;;;;;;;;14.88;85.76;101816.09;4997705;28;20046;-77
2022/10/06 02:40:06;;;;;;;41.25;22.58;;;;;;;14.80;86.29;101813.34;4995756;28;19918;-77
2022/10/06 02:42:51;;;;;;;38.72;23.65;;;;;;;14.74;86.41;101817.31;4999021;28;20046;-77
2022/10/06 02:45:38;;;;;;;45.15;23.38;;;;;;;14.72;86.97;101819.59;4996518;28;20046;-77
2022/10/06 02:48:23;;;;;;;34.90;16.90;;;;;;;14.83;86.29;101815.47;4984075;28;20047;-78
2022/10/06 02:51:12;;;;;;;43.28;23.02;;;;;;;14.68;86.84;101811.19;4991211;28;20034;-77
2022/10/06 02:53:57;;;;;;;46.97;23.38;;;;;;;14.74;86.84;101817.31;4977052;28;20055;-77
2022/10/06 02:56:42;;;;;;;34.05;23.70;;;;;;;14.62;87.06;101806.19;4977212;28;20043;-77
2022/10/06 02:59:27;;;;;;;39.25;23.50;;;;;;;14.70;87.15;101816.34;4976089;28;20418;-77
2022/10/06 03:02:12;;;;;;;57.85;23.77;;;;;;;14.82;86.75;101809.16;4995138;28;20418;-77
2022/10/06 03:04:56;;;;;;;55.92;23.52;;;;;;;14.90;86.03;101808.38;4996028;28;20050;-78
2022/10/06 03:07:41;;;;;;;;;;;;;;;14.99;85.27;101825.63;4996100;28;20410;-77
2022/10/06 03:10:26;;;;;;;41.67;22.00;;;;;;;14.97;85.16;101814.22;4995377;28;19914;-77
2022/10/06 03:13:10;;;;;;;34.88;17.38;;;;;;;14.76;85.97;101809.63;4995042;28;20038;-77
2022/10/06 03:15:56;;;;;;;42.08;21.55;;;;;;;14.76;86.64;101815.09;4995946;28;20046;-77
2022/10/06 03:18:50;;;;;;;37.47;21.85;;;;;;;14.80;86.00;101810.59;4995231;28;20047;-77
2022/10/06 03:21:40;;;;;;;39.72;22.02;;;;;;;14.81;85.72;101814.94;4988724;28;20050;-78
2022/10/06 03:24:25;;;;;;;33.05;22.75;;;;;;;14.74;85.67;101818.13;4997535;28;20038;-78
2022/10/06 03:27:14;;;;;;;31.98;21.98;;;;;;;14.79;84.60;101819.94;4996333;28;20046;-77
2022/10/06 03:29:59;;;;;;;32.05;22.35;;;;;;;14.77;84.67;101822.19;4994876;28;20042;-77
2022/10/06 03:32:46;;;;;;;40.97;22.15;;;;;;;14.62;85.12;101815.22;4990548;28;20426;-77
2022/10/06 03:35:32;;;;;;;35.72;21.27;;;;;;;14.68;84.30;101816.66;4976782;28;20038;-77
2022/10/06 03:38:16;;;;;;;43.72;22.38;;;;;;;14.58;84.57;101822.41;4975042;28;20046;-78
2022/10/06 03:41:03;;;;;;;;;;;;;;;14.49;84.81;101822.38;4979192;28;20046;-77
2022/10/06 03:43:48;;;;;;;;;;;;;;;14.41;85.24;101825.88;4995977;28;19914;-77
2022/10/06 03:46:34;;;;;;;34.72;21.00;;;;;;;14.36;85.35;101823.28;4994935;28;19917;-77
2022/10/06 03:49:21;;;;;;;32.45;21.10;;;;;;;14.31;85.50;101812.44;4995480;28;20054;-77
2022/10/06 03:52:06;;;;;;;34.90;21.90;;;;;;;14.58;84.80;101821.63;4993105;28;20038;-77
2022/10/06 03:54:54;;;;;;;32.50;22.40;;;;;;;14.47;84.45;101823.81;4992638;28;20041;-77
2022/10/06 03:57:40;;;;;;;35.53;22.13;;;;;;;14.38;84.83;101821.03;4995799;28;20046;-77
2022/10/06 04:00:25;;;;;;;;;;;;;;;14.28;85.27;101824.00;4996208;28;20414;-77
2022/10/06 04:03:10;;;;;;;34.90;22.77;;;;;;;14.24;85.51;101819.47;4994502;28;19914;-77
2022/10/06 04:05:56;;;;;;;34.92;23.00;;;;;;;14.18;86.16;101813.31;5000368;28;20050;-77
2022/10/06 04:08:44;;;;;;;30.95;21.83;;;;;;;14.22;85.77;101816.25;4996535;28;20046;-77
2022/10/06 04:11:31;;;;;;;29.52;21.38;;;;;;;14.29;85.97;101822.06;4997294;28;20043;-77
2022/10/06 04:14:17;;;;;;;33.55;22.55;;;;;;;14.32;85.24;101825.00;4997750;28;20042;-77
2022/10/06 04:17:03;;;;;;;32.10;20.48;;;;;;;14.31;84.84;101819.84;4995836;28;20050;-77
2022/10/06 04:19:52;;;;;;;30.67;21.08;;;;;;;14.33;84.44;101818.38;4978035;28;20506;-77
2022/10/06 04:22:36;;;;;;;;;;;;;;;14.39;84.79;101816.34;4995014;28;20042;-77
2022/10/06 04:25:21;;;;;;;31.60;21.15;;;;;;;14.30;84.39;101821.75;4984145;28;19913;-77
2022/10/06 04:28:06;;;;;;;23.13;15.45;;;;;;;14.29;84.97;101831.09;4985567;28;20034;-77
2022/10/06 04:30:59;;;;;;;29.35;21.17;;;;;;;14.24;85.48;101831.22;4986357;28;20418;-77
2022/10/06 04:33:46;;;;;;;35.17;22.98;;;;;;;14.23;85.36;101828.78;4982200;28;20038;-77
2022/10/06 04:36:40;;;;;;;37.08;23.08;;;;;;;14.28;84.22;101834.94;4987093;28;20042;-77
2022/10/06 04:39:26;;;;;;;30.60;20.42;;;;;;;14.26;84.46;101833.66;4989483;28;20046;-77
2022/10/06 04:42:11;;;;;;;44.17;23.50;;;;;;;14.21;85.15;101840.06;4993596;28;20042;-77
2022/10/06 04:44:56;;;;;;;35.42;22.33;;;;;;;14.38;84.77;101837.44;4995612;28;20038;-77
2022/10/06 04:47:41;;;;;;;34.20;22.10;;;;;;;14.39;84.60;101844.53;4994715;28;20042;-77
2022/10/06 04:50:26;;;;;;;35.90;22.52;;;;;;;14.30;84.77;101851.84;4986616;28;20042;-77
2022/10/06 04:53:29;;;;;;;32.72;22.42;;;;;;;14.09;85.64;101834.34;5000708;28;20038;-78
2022/10/06 04:56:16;;;;;;;40.33;22.52;;;;;;;14.10;86.16;101857.84;4976966;28;20046;-77
2022/10/06 04:59:01;;;;;;;37.85;23.70;;;;;;;14.12;85.65;101847.38;4985509;28;20495;-78
2022/10/06 05:01:47;;;;;;;32.83;23.33;;;;;;;14.25;85.37;101853.91;4989767;28;20047;-78
2022/10/06 05:04:33;;;;;;;;;;;;;;;14.37;84.22;101857.75;4992869;28;20042;-78
2022/10/06 05:07:17;;;;;;;26.37;15.63;;;;;;;14.38;83.02;101850.31;4992011;28;19913;-78
2022/10/06 05:10:03;;;;;;;36.45;21.95;;;;;;;14.42;82.54;101867.75;4991522;28;20281;-78
2022/10/06 05:12:49;;;;;;;46.88;23.02;;;;;;;14.31;83.03;101867.16;4990707;28;20047;-78
2022/10/06 05:15:34;;;;;;;36.95;22.95;;;;;;;14.18;83.93;101876.22;4993944;28;20042;-83
2022/10/06 05:18:19;;;;;;;35.72;24.13;;;;;;;14.10;84.05;101875.06;5001646;28;20042;-79
2022/10/06 05:21:13;;;;;;;46.63;28.40;;;;;;;14.06;84.58;101867.78;4991722;28;20050;-79
2022/10/06 05:23:59;;;;;;;44.63;25.83;;;;;;;14.13;84.11;101868.16;4996224;28;20038;-79
2022/10/06 05:26:44;;;;;;;37.25;22.77;;;;;;;14.19;83.23;101882.50;5004933;28;20046;-79
2022/10/06 05:29:33;;;;;;;47.42;22.52;;;;;;;14.12;82.87;101877.47;5001222;28;20038;-79
2022/10/06 05:32:18;;;;;;;41.50;22.17;;;;;;;14.04;83.36;101875.47;4991618;28;20039;-78
2022/10/06 05:35:03;;;;;;;39.45;21.23;;;;;;;13.84;84.79;101873.22;4985175;28;20046;-81
2022/10/06 05:37:48;;;;;;;41.67;22.92;;;;;;;13.96;85.12;101876.22;4999410;28;20046;-79
2022/10/06 05:40:33;;;;;;;31.95;22.33;;;;;;;13.98;83.94;101876.72;4999129;28;20050;-78
2022/10/06 05:43:18;;;;;;;40.25;23.70;;;;;;;13.83;84.96;101891.56;4981001;28;20055;-79
2022/10/06 05:46:06;;;;;;;38.15;22.20;;;;;;;13.88;84.67;101882.41;4983838;28;20043;-79
2022/10/06 05:48:56;;;;;;;39.03;22.67;;;;;;;14.09;83.96;101889.03;4980379;28;20043;-79
2022/10/06 05:51:43;;;;;;;37.40;23.50;;;;;;;14.21;82.84;101894.78;4980861;28;20042;-79
2022/10/06 05:54:38;;;;;;;54.97;25.50;;;;;;;14.59;81.96;101899.88;4993634;28;20039;-79
2022/10/06 05:57:26;;;;;;;55.78;24.50;;;;;;;15.01;80.01;101893.81;4988323;28;20436;-78
2022/10/06 06:00:11;;;;;;;40.75;22.52;;;;;;;15.57;77.88;101892.22;5001962;28;20046;-78
2022/10/06 06:02:57;;;;;;;37.15;20.98;;;;;;;15.99;75.03;101893.41;5002573;28;20050;-79
2022/10/06 06:05:42;;;;;;;;;;;;;;;16.50;72.03;101904.34;4999746;28;20046;-79
2022/10/06 06:08:27;;;;;;;31.00;15.80;;;;;;;16.88;71.37;101890.69;5033154;23;19921;-77
2022/10/06 06:11:12;;;;;;;;;;;;;;;16.73;71.28;101893.97;5002990;28;20046;-77
2022/10/06 06:13:59;;;;;;;35.00;20.13;;;;;;;17.08;70.65;101900.13;5011505;28;19913;-77
2022/10/06 06:16:45;;;;;;;39.25;22.77;;;;;;;17.22;69.80;101899.94;5011473;28;20284;-79
2022/10/06 06:19:30;;;;;;;41.53;22.90;;;;;;;18.08;66.22;101907.66;5022380;28;20038;-78
2022/10/06 06:22:15;;;;;;;;;;;;;;;18.84;63.43;101904.50;5012056;28;20508;-77
2022/10/06 06:25:01;;;;;;;40.45;19.67;;;;;;;19.65;60.48;101907.16;5010851;28;19914;-77
2022/10/06 06:27:47;;;;;;;34.80;21.13;;;;;;;19.30;61.46;101912.31;5017999;28;20038;-77
2022/10/06 06:30:34;;;;;;;39.13;19.95;;;;;;;17.84;66.93;101917.38;5009058;28;20034;-78
2022/10/06 06:33:19;;;;;;;29.08;19.75;;;;;;;17.44;69.50;101905.94;5009081;28;20038;-79
2022/10/06 06:36:19;;;;;;;31.75;20.95;;;;;;;17.52;70.07;101909.81;5011053;28;20042;-76
2022/10/06 06:39:07;;;;;;;36.25;20.98;;;;;;;17.51;70.44;101916.44;5005834;28;20050;-77
2022/10/06 06:41:52;;;;;;;35.70;22.77;;;;;;;17.26;71.70;101922.88;4999593;28;20042;-78
2022/10/06 06:44:58;;;;;;;46.45;23.98;;;;;;;17.38;72.25;101931.22;4998196;28;20038;-78
2022/10/06 06:47:52;;;;;;;37.08;22.70;;;;;;;17.12;74.25;101931.31;5000973;28;20050;-76
2022/10/06 06:50:36;;;;;;;;;;;;;;;17.05;74.96;101939.28;4995648;28;20058;-78
2022/10/06 06:53:22;;;;;;;45.65;22.55;;;;;;;17.36;74.04;101939.00;4993567;28;19914;-78
2022/10/06 06:56:08;;;;;;;43.33;22.10;;;;;;;17.76;72.61;101937.50;4991363;28;20042;-78
2022/10/06 06:58:53;;;;;;;43.13;23.23;;;;;;;18.05;71.30;101947.66;4997341;28;20046;-77
2022/10/06 07:01:44;;;;;;;36.50;23.17;;;;;;;18.10;71.81;101952.94;5008718;28;20501;-79
2022/10/06 07:04:31;;;;;;;35.08;23.10;;;;;;;18.43;70.84;101957.72;5019523;28;20489;-81
2022/10/06 07:07:18;;;;;;;38.22;23.42;;;;;;;18.91;69.54;101962.59;4998158;28;20442;-81
2022/10/06 07:10:03;;;;;;;44.10;24.23;;;;;;;19.00;68.92;101961.34;4994956;28;20047;-79
2022/10/06 07:12:50;;;;;;;39.10;23.70;;;;;;;18.94;69.50;101953.66;4995119;28;20042;-79
2022/10/06 07:25:11;;;;;;;39.90;24.13;;;;;;;19.03;70.06;101971.72;5017334;28;20413;-75
2022/10/06 07:28:05;;;;;;;38.92;24.95;;;;;;;19.51;68.53;101976.50;5019769;28;20042;-75
2022/10/06 07:30:53;;;;;;;42.47;24.75;;;;;;;19.13;69.29;101976.78;5017608;28;20041;-77
2022/10/06 07:33:39;;;;;;;45.15;24.65;;;;;;;18.87;69.81;101975.44;5017145;28;20042;-77
2022/10/06 07:36:25;;;;;;;37.13;24.73;;;;;;;19.12;69.48;101988.97;5019756;28;20045;-77
2022/10/06 07:39:10;;;;;;;40.63;26.25;;;;;;;19.72;67.40;101973.59;5015221;28;20060;-77
2022/10/06 07:41:55;;;;;;;35.40;25.05;;;;;;;20.33;65.06;101985.38;5013976;28;20046;-77
2022/10/06 07:44:42;;;;;;;41.40;26.83;;;;;;;19.76;67.14;101977.28;5017321;28;20037;-78
2022/10/06 07:47:27;;;;;;;37.92;25.88;;;;;;;19.86;67.06;101984.31;5010292;28;20050;-78
2022/10/06 07:50:14;;;;;;;43.22;24.70;;;;;;;20.46;65.37;101969.56;5011628;28;20046;-78
2022/10/06 07:53:07;;;;;;;39.33;24.95;;;;;;;20.76;63.17;101981.06;5016508;28;20050;-77
2022/10/06 07:55:53;;;;;;;34.65;23.15;;;;;;;20.69;63.75;101987.19;5008477;28;20053;-76
2022/10/06 07:58:40;;;;;;;40.30;23.48;;;;;;;20.58;63.64;101988.84;5013244;28;20041;-77
2022/10/06 08:01:28;;;;;;;37.85;24.48;;;;;;;20.65;63.25;101988.25;5014355;28;20405;-77
2022/10/06 08:04:12;;;;;;;35.33;24.05;;;;;;;20.69;62.51;101989.94;5015321;28;20038;-77
2022/10/06 08:06:57;;;;;;;43.40;23.30;;;;;;;20.34;62.98;101986.97;5013433;28;20041;-76
2022/10/06 08:09:42;;;;;;;35.40;23.67;;;;;;;21.09;61.49;102002.84;5017345;28;20485;-81
2022/10/06 08:12:33;;;;;;;34.92;23.83;;;;;;;20.92;61.39;101998.47;5017767;28;20033;-78
2022/10/06 08:15:18;;;;;;;41.00;24.45;;;;;;;20.62;63.29;102008.31;5012886;28;20416;-79
2022/10/06 08:18:03;;;;;;;39.63;24.75;;;;;;;21.76;59.01;102001.81;5013643;28;20041;-76
2022/10/06 08:20:48;;;;;;;41.90;24.20;;;;;;;21.97;57.70;102007.88;5013411;28;20045;-78
2022/10/06 08:23:39;;;;;;;35.25;23.17;;;;;;;21.26;60.40;102003.38;5013698;28;20669;-78
2022/10/06 08:26:25;;;;;;;36.88;25.27;;;;;;;21.43;59.39;102005.00;5013755;28;20050;-78
2022/10/06 08:29:10;;;;;;;43.05;23.00;;;;;;;22.15;57.78;102003.53;5013195;28;20041;-78
2022/10/06 08:31:58;;;;;;;33.63;22.67;;;;;;;22.17;57.19;102009.53;5013418;28;20046;-78
2022/10/06 08:34:42;;;;;;;41.40;24.65;;;;;;;22.03;57.50;102012.00;5016569;28;20037;-80
2022/10/06 08:37:27;;;;;;;36.72;23.77;;;;;;;21.37;59.70;102013.91;5014690;28;20053;-77
2022/10/06 08:40:14;;;;;;;35.05;22.80;;;;;;;21.82;58.79;102014.22;5011985;28;20038;-77
2022/10/06 08:43:01;;;;;;;37.33;25.25;;;;;;;21.05;60.77;102018.56;5013735;28;20490;-79
2022/10/06 08:45:46;;;;;;;36.60;25.45;;;;;;;21.17;60.38;102016.56;5013297;28;20050;-77
2022/10/06 08:48:37;;;;;;;40.28;25.75;;;;;;;21.31;60.60;102014.16;5015256;28;20042;-78
2022/10/06 08:51:50;;;;;;;34.90;24.55;;;;;;;21.21;61.04;102016.66;5013038;28;20042;-77
2022/10/06 08:54:37;;;;;;;43.17;26.23;;;;;;;21.23;60.99;102022.66;5016120;28;20042;-78
2022/10/06 08:57:31;;;;;;;39.78;26.50;;;;;;;21.93;58.22;102023.59;5014053;28;20049;-77
2022/10/06 09:00:16;;;;;;;42.75;24.85;;;;;;;21.89;58.14;102025.47;5012786;28;20525;-79
2022/10/06 09:03:02;;;;;;;35.00;22.88;;;;;;;21.49;59.72;102028.44;5012869;28;20049;-76
2022/10/06 09:05:47;;;;;;;37.78;25.65;;;;;;;21.92;58.46;102024.75;5013559;28;20045;-80
2022/10/06 09:08:51;;;;;;;48.17;26.95;;;;;;;22.58;56.79;102021.06;5016433;28;20046;-79
2022/10/06 09:11:36;;;;;;;44.45;25.45;;;;;;;22.87;55.84;102031.59;5014755;28;20413;-77
2022/10/06 09:14:27;;;;;;;43.47;25.85;;;;;;;22.00;58.21;102021.00;5012691;28;20064;-78
2022/10/06 09:17:17;;;;;;;49.33;26.85;;;;;;;22.52;56.59;102014.22;5016429;28;20046;-76
2022/10/06 09:20:33;;;;;;;39.83;26.13;;;;;;;22.85;55.26;102025.63;5012025;28;20046;-77
2022/10/06 09:23:46;;;;;;;44.42;26.83;;;;;;;22.01;57.76;102022.63;5016622;28;20046;-77
2022/10/06 09:26:30;;;;;;;47.78;24.90;;;;;;;22.46;56.79;102027.56;5014025;28;20042;-77
2022/10/06 09:29:15;;;;;;;49.13;26.25;;;;;;;22.17;57.52;102020.59;5011596;28;20042;-77
2022/10/06 09:32:01;;;;;;;42.55;26.23;;;;;;;21.91;58.18;102020.38;5012145;28;20038;-78
2022/10/06 09:34:50;;;;;;;47.92;27.35;;;;;;;22.17;57.73;102026.16;5013348;28;20041;-78
2022/10/06 09:37:52;;;;;;;47.42;27.33;;;;;;;22.50;55.87;102033.19;5017125;28;20038;-78
2022/10/06 09:40:50;;;;;;;36.30;26.13;;;;;;;23.51;53.60;102032.78;5014213;28;20049;-77
2022/10/06 09:43:34;;;;;;;45.33;26.98;;;;;;;22.91;55.08;102035.22;5012457;28;20037;-78
2022/10/06 09:46:27;;;;;;;42.13;26.08;;;;;;;22.78;55.18;102025.47;5015738;28;20046;-77
2022/10/06 09:49:11;;;;;;;39.92;25.88;;;;;;;22.31;56.93;102027.63;5012042;28;20598;-79
2022/10/06 09:51:56;;;;;;;40.78;27.45;;;;;;;22.25;56.40;102031.88;5011220;28;20493;-79
2022/10/06 09:54:42;;;;;;;43.38;27.58;;;;;;;22.64;55.52;102022.38;5012092;28;20046;-76
2022/10/06 09:57:27;;;;;;;44.72;26.85;;;;;;;22.69;55.87;102022.09;5012356;28;20413;-77
2022/10/06 10:00:25;;;;;;;45.97;26.33;;;;;;;22.66;55.86;102025.59;5011115;28;20046;-77
2022/10/06 10:03:10;;;;;;;41.10;27.58;;;;;;;22.82;55.74;102025.53;5014988;28;20069;-77
2022/10/06 10:05:56;;;;;;;43.90;27.25;;;;;;;23.08;55.23;102024.84;5013371;28;20038;-77
2022/10/06 10:08:41;;;;;;;39.20;26.15;;;;;;;22.63;55.04;102019.97;5011621;28;20046;-77
2022/10/06 10:14:37;;;;;;;44.20;27.27;;;;;;;24.66;50.03;102014.59;5012166;28;20046;-77
2022/10/06 10:17:35;;;;;;;41.25;27.63;;;;;;;23.32;53.87;102011.41;5012881;28;20034;-76
2022/10/06 10:20:49;;;;;;;42.03;28.05;;;;;;;23.79;53.19;102013.78;5014026;28;20042;-76
2022/10/06 10:23:42;;;;;;;38.92;27.30;;;;;;;23.87;53.19;102023.06;5012717;28;20041;-76
2022/10/06 10:26:29;;;;;;;45.58;28.20;;;;;;;23.43;53.75;102017.94;5014616;28;20045;-77
2022/10/06 10:29:53;;;;;;;37.67;24.33;;;;;;;24.33;51.86;102000.69;5012053;28;20045;-76
2022/10/06 10:33:09;;;;;;;40.10;26.67;;;;;;;24.27;50.64;102003.78;5014402;28;20064;-76
2022/10/06 10:35:57;;;;;;;35.95;24.85;;;;;;;24.82;48.50;102006.84;5019877;28;20038;-77
2022/10/06 10:38:45;;;;;;;36.58;24.83;;;;;;;24.20;50.12;102002.88;5015702;28;20045;-77
2022/10/06 10:41:40;;;;;;;120.38;31.65;;;;;;;24.87;48.37;101998.16;5015528;28;20494;-76
2022/10/06 10:44:32;;;;;;;39.95;26.02;;;;;;;24.56;49.55;102004.94;5019393;28;20057;-77
2022/10/06 10:47:24;;;;;;;35.85;25.00;;;;;;;25.31;48.29;102000.97;5017672;28;20034;-77
2022/10/06 10:50:12;;;;;;;38.42;24.95;;;;;;;24.64;49.08;102003.84;5013682;28;20493;-77
2022/10/06 10:53:06;;;;;;;37.53;27.20;;;;;;;25.33;47.08;101997.81;5014737;28;20041;-77
2022/10/06 10:55:52;;;;;;;38.70;27.17;;;;;;;25.06;47.43;102011.06;5014085;28;20413;-77
2022/10/06 10:58:40;;;;;;;38.20;26.50;;;;;;;25.39;46.84;102011.00;5012802;28;20037;-78
2022/10/06 11:01:57;;;;;;;36.58;27.08;;;;;;;27.13;42.40;102006.34;5014309;28;20576;-77
2022/10/06 11:04:50;;;;;;;42.42;26.67;;;;;;;27.33;43.13;102012.38;5010182;28;20366;-76
2022/10/06 11:07:44;;;;;;;38.80;25.73;;;;;;;27.45;42.72;102015.53;5010630;28;20038;-78
2022/10/06 11:10:43;;;;;;;41.67;28.48;;;;;;;27.68;41.41;102005.97;5016748;28;20502;-78
2022/10/06 11:13:38;;;;;;;43.08;23.75;;;;;;;26.13;45.29;101996.00;5020666;28;20042;-78
2022/10/06 11:16:50;;;;;;;40.30;24.08;;;;;;;25.99;45.95;101996.72;5017625;28;20030;-76
2022/10/06 11:20:03;;;;;;;40.78;25.33;;;;;;;26.27;45.32;101985.72;5017565;28;20054;-76
2022/10/06 11:23:07;;;;;;;31.55;21.73;;;;;;;29.04;39.15;101999.47;5017737;28;20038;-78
2022/10/06 11:26:16;;;;;;;36.50;25.77;;;;;;;32.16;32.25;102002.59;5016393;28;20046;-76
2022/10/06 11:29:23;;;;;;;30.42;24.40;;;;;;;31.91;32.29;101999.44;5016034;28;20444;-76
2022/10/06 11:32:31;;;;;;;37.20;26.35;;;;;;;35.39;27.43;101997.56;5012548;28;20041;-77
2022/10/06 11:35:28;;;;;;;38.30;26.48;;;;;;;38.23;23.20;101994.72;5016042;28;20412;-76
2022/10/06 11:38:28;;;;;;;39.88;25.02;;;;;;;37.61;23.60;102009.28;4997641;28;20054;-77
2022/10/06 11:41:26;;;;;;;33.30;25.52;;;;;;;33.18;29.40;101987.44;5010918;28;20034;-77
2022/10/06 11:44:32;;;;;;;256.48;36.13;;;;;;;36.57;24.72;101994.09;4996645;28;20501;-77
2022/10/06 11:47:27;;;;;;;37.28;26.67;;;;;;;33.86;27.40;101981.66;4999172;28;20046;-77
2022/10/06 11:50:32;;;;;;;35.40;26.55;;;;;;;35.56;25.90;101979.16;5014734;28;20045;-77
2022/10/06 11:53:35;;;;;;;36.42;25.75;;;;;;;32.62;29.14;101978.25;4999315;28;20035;-78
2022/10/06 11:56:20;;;;;;;;;;;;;;;34.41;27.31;101982.50;5012679;28;20037;-76
2022/10/06 11:59:14;;;;;;;41.15;26.52;;;;;;;33.00;29.42;101965.31;5008309;28;19913;-77
2022/10/06 12:01:59;;;;;;;31.83;25.98;;;;;;;34.66;26.98;101956.28;5005990;28;20413;-80
2022/10/06 12:05:13;;;;;;;32.92;24.55;;;;;;;32.46;30.01;101964.16;5018278;28;20409;-78
2022/10/06 12:08:02;;;;;;;35.70;28.15;;;;;;;31.40;31.11;101952.94;5017616;28;20041;-77
2022/10/06 12:10:51;;;;;;;40.30;26.10;;;;;;;36.01;24.80;101953.25;5019794;28;20045;-78
2022/10/06 12:13:58;;;;;;;102.95;37.55;;;;;;;36.16;25.01;101953.56;5011191;28;20034;-79
2022/10/06 12:16:47;;;;;;;38.95;25.17;;;;;;;37.67;22.83;101945.69;5015285;28;20034;-80
2022/10/06 12:19:49;;;;;;;39.20;28.27;;;;;;;36.70;23.21;101946.59;5015818;28;20046;-79
2022/10/06 12:22:43;;;;;;;33.85;26.45;;;;;;;38.71;20.96;101953.81;5021919;23;20046;-80
2022/10/06 12:25:46;;;;;;;30.70;24.45;;;;;;;41.17;18.85;101948.63;4997182;28;20054;-79
2022/10/06 12:28:39;;;;;;;62.33;25.48;;;;;;;40.92;18.40;101943.59;4999138;28;20042;-80
2022/10/06 12:31:55;;;;;;;36.67;26.05;;;;;;;40.18;18.65;101937.22;5007591;28;20046;-79
2022/10/06 12:35:06;;;;;;;34.17;26.35;;;;;;;43.45;15.77;101941.97;4998758;28;20050;-80
2022/10/06 12:37:53;;;;;;;32.95;24.48;;;;;;;44.38;15.12;101944.72;4981199;28;20043;-79
2022/10/06 12:40:39;;;;;;;27.42;22.58;;;;;;;45.88;14.09;101946.25;4979821;28;20047;-79
2022/10/06 12:43:44;;;;;;;34.22;22.40;;;;;;;45.55;13.96;101944.38;4993289;28;20043;-79
2022/10/06 12:46:39;;;;;;;34.60;22.80;;;;;;;45.32;14.21;101940.81;4990987;28;20038;-79
2022/10/06 12:49:37;;;;;;;29.20;21.65;;;;;;;41.39;17.54;101934.63;4983430;28;20495;-79
2022/10/06 12:52:44;;;;;;;30.42;23.38;;;;;;;44.31;14.68;101934.56;4980926;28;20038;-79
2022/10/06 12:55:50;;;;;;;27.50;23.08;;;;;;;42.22;17.06;101931.84;4977258;28;20046;-79
2022/10/06 12:58:34;;;;;;;25.55;21.83;;;;;;;39.74;18.94;101920.84;4978644;28;20034;-79
2022/10/06 13:01:21;;;;;;;31.25;23.38;;;;;;;39.68;19.24;101914.25;4994791;28;20478;-79
2022/10/06 13:04:33;;;;;;;27.83;23.38;;;;;;;40.37;19.16;101921.47;4979717;28;20054;-79
2022/10/06 13:07:27;;;;;;;37.45;23.95;;;;;;;38.85;19.97;101912.50;4978701;28;20046;-79
2022/10/06 13:10:20;;;;;;;41.83;23.63;;;;;;;42.08;17.03;101921.31;4978807;28;20035;-79